createdAt,value
2023-01-30T00:00:12.934Z,22
2023-01-30T00:01:12.931Z,22
2023-01-30T00:02:12.992Z,22
2023-01-30T00:03:12.933Z,19
2023-01-30T00:04:14.263Z,21
2023-01-30T00:05:12.997Z,22
2023-01-30T00:06:12.948Z,19
2023-01-30T00:07:12.941Z,22
2023-01-30T00:08:12.932Z,19
2023-01-30T00:10:12.939Z,18
2023-01-30T00:11:12.937Z,21
2023-01-30T00:12:12.937Z,21
2023-01-30T00:13:12.938Z,20
2023-01-30T00:14:12.944Z,22
2023-01-30T00:15:12.931Z,22
2023-01-30T00:16:12.995Z,24
2023-01-30T00:17:12.927Z,26
2023-01-30T00:18:12.929Z,23
2023-01-30T00:19:12.940Z,23
2023-01-30T00:20:15.507Z,24
2023-01-30T00:21:12.938Z,21
2023-01-30T00:23:12.933Z,21
2023-01-30T00:24:12.987Z,22
2023-01-30T00:25:13.061Z,23
2023-01-30T00:26:13.013Z,22
2023-01-30T00:27:12.938Z,24
2023-01-30T00:28:12.938Z,20
2023-01-30T00:29:12.934Z,22
2023-01-30T00:31:12.949Z,23
2023-01-30T00:32:12.936Z,23
2023-01-30T00:33:12.936Z,23
2023-01-30T00:34:12.930Z,21
2023-01-30T00:36:12.935Z,21
2023-01-30T00:38:12.967Z,22
2023-01-30T00:39:12.936Z,22
2023-01-30T00:40:12.932Z,27
2023-01-30T00:41:12.925Z,23
2023-01-30T00:42:12.932Z,21
2023-01-30T00:43:12.937Z,23
2023-01-30T00:44:12.948Z,22
2023-01-30T00:45:12.931Z,24
2023-01-30T00:46:12.970Z,25
2023-01-30T00:47:12.926Z,22
2023-01-30T00:48:12.933Z,22
2023-01-30T00:49:12.940Z,24
2023-01-30T00:50:12.944Z,22
2023-01-30T00:51:12.927Z,23
2023-01-30T00:52:12.931Z,23
2023-01-30T00:53:12.929Z,23
2023-01-30T00:54:12.956Z,23
2023-01-30T00:55:12.940Z,23
2023-01-30T00:57:12.934Z,23
2023-01-30T00:58:12.935Z,24
2023-01-30T00:59:12.936Z,21
2023-01-30T01:00:12.925Z,23
2023-01-30T01:01:12.935Z,20
2023-01-30T01:02:12.970Z,21
2023-01-30T01:03:12.978Z,23
2023-01-30T01:04:12.965Z,20
2023-01-30T01:05:12.927Z,25
2023-01-30T01:06:12.933Z,20
2023-01-30T01:07:12.927Z,21
2023-01-30T01:08:12.934Z,22
2023-01-30T01:09:12.928Z,22
2023-01-30T01:10:12.980Z,21
2023-01-30T01:11:12.933Z,22
2023-01-30T01:12:12.929Z,22
2023-01-30T01:13:12.922Z,22
2023-01-30T01:14:12.930Z,23
2023-01-30T01:15:12.931Z,23
2023-01-30T01:16:12.945Z,25
2023-01-30T01:18:12.927Z,22
2023-01-30T01:19:12.924Z,22
2023-01-30T01:20:12.926Z,24
2023-01-30T01:21:12.921Z,24
2023-01-30T01:22:12.930Z,24
2023-01-30T01:24:12.925Z,23
2023-01-30T01:25:12.924Z,26
2023-01-30T01:26:12.942Z,24
2023-01-30T01:27:12.962Z,26
2023-01-30T01:28:12.928Z,22
2023-01-30T01:29:12.932Z,26
2023-01-30T01:30:12.927Z,22
2023-01-30T01:31:13.011Z,22
2023-01-30T01:32:12.947Z,25
2023-01-30T01:33:12.942Z,24
2023-01-30T01:34:12.956Z,23
2023-01-30T01:35:12.928Z,26
2023-01-30T01:36:19.911Z,26
2023-01-30T01:37:12.951Z,24
2023-01-30T01:38:12.926Z,24
2023-01-30T01:39:12.938Z,25
2023-01-30T01:40:12.929Z,25
2023-01-30T01:41:12.917Z,23
2023-01-30T01:42:12.935Z,26
2023-01-30T01:43:12.916Z,26
2023-01-30T01:44:12.920Z,24
2023-01-30T01:45:12.933Z,26
2023-01-30T01:46:12.971Z,25
2023-01-30T01:47:12.931Z,25
2023-01-30T01:48:12.928Z,23
2023-01-30T01:49:12.924Z,24
2023-01-30T01:50:12.919Z,28
2023-01-30T01:51:12.931Z,24
2023-01-30T01:52:12.924Z,26
2023-01-30T01:53:12.922Z,25
2023-01-30T01:54:12.929Z,22
2023-01-30T01:55:12.921Z,26
2023-01-30T01:56:12.921Z,25
2023-01-30T01:57:12.923Z,22
2023-01-30T01:58:12.927Z,24
2023-01-30T01:59:12.994Z,25
2023-01-30T02:00:12.934Z,23
2023-01-30T02:01:12.958Z,25
2023-01-30T02:02:12.954Z,24
2023-01-30T02:03:12.954Z,21
2023-01-30T02:04:12.934Z,21
2023-01-30T02:05:12.920Z,24
2023-01-30T02:06:12.923Z,24
2023-01-30T02:07:12.923Z,22
2023-01-30T02:08:12.918Z,19
2023-01-30T02:09:12.924Z,25
2023-01-30T02:10:12.923Z,21
2023-01-30T02:11:12.918Z,20
2023-01-30T02:12:12.921Z,21
2023-01-30T02:13:12.948Z,21
2023-01-30T02:14:12.919Z,24
2023-01-30T02:15:12.926Z,18
2023-01-30T02:16:12.938Z,18
2023-01-30T02:17:13.026Z,20
2023-01-30T02:18:12.922Z,19
2023-01-30T02:19:12.917Z,18
2023-01-30T02:20:12.916Z,21
2023-01-30T02:21:12.924Z,22
2023-01-30T02:22:12.918Z,20
2023-01-30T02:23:12.916Z,19
2023-01-30T02:24:12.934Z,18
2023-01-30T02:25:12.921Z,16
2023-01-30T02:26:12.984Z,19
2023-01-30T02:27:12.917Z,19
2023-01-30T02:28:12.961Z,19
2023-01-30T02:29:12.916Z,19
2023-01-30T02:30:12.928Z,19
2023-01-30T02:31:13.053Z,18
2023-01-30T02:32:12.939Z,20
2023-01-30T02:33:12.916Z,19
2023-01-30T02:34:12.914Z,17
2023-01-30T02:35:12.920Z,18
2023-01-30T02:36:12.916Z,19
2023-01-30T02:37:12.918Z,19
2023-01-30T02:38:12.921Z,19
2023-01-30T02:39:12.909Z,20
2023-01-30T02:40:12.945Z,20
2023-01-30T02:42:12.918Z,20
2023-01-30T02:43:12.932Z,18
2023-01-30T02:44:12.921Z,21
2023-01-30T02:45:12.918Z,18
2023-01-30T02:46:12.939Z,19
2023-01-30T02:47:12.927Z,20
2023-01-30T02:48:12.916Z,20
2023-01-30T02:50:12.919Z,17
2023-01-30T02:51:12.917Z,19
2023-01-30T02:52:12.931Z,19
2023-01-30T02:53:12.908Z,18
2023-01-30T02:55:12.914Z,18
2023-01-30T02:56:12.907Z,18
2023-01-30T02:57:13.034Z,19
2023-01-30T02:58:12.913Z,16
2023-01-30T02:59:12.930Z,19
2023-01-30T03:00:12.921Z,19
2023-01-30T03:01:12.957Z,19
2023-01-30T03:02:12.938Z,18
2023-01-30T03:03:12.922Z,18
2023-01-30T03:04:12.912Z,17
2023-01-30T03:05:12.912Z,18
2023-01-30T03:06:12.917Z,19
2023-01-30T03:07:12.911Z,18
2023-01-30T03:08:12.910Z,19
2023-01-30T03:09:12.912Z,20
2023-01-30T03:10:12.913Z,16
2023-01-30T03:11:12.910Z,16
2023-01-30T03:12:12.916Z,17
2023-01-30T03:13:12.921Z,18
2023-01-30T03:14:12.917Z,19
2023-01-30T03:16:12.954Z,16
2023-01-30T03:17:12.917Z,19
2023-01-30T03:18:12.936Z,20
2023-01-30T03:19:12.908Z,17
2023-01-30T03:20:12.935Z,18
2023-01-30T03:21:12.918Z,18
2023-01-30T03:22:12.914Z,20
2023-01-30T03:23:12.908Z,19
2023-01-30T03:24:12.915Z,18
2023-01-30T03:25:12.941Z,20
2023-01-30T03:26:12.935Z,19
2023-01-30T03:27:12.936Z,18
2023-01-30T03:28:12.915Z,18
2023-01-30T03:29:12.928Z,19
2023-01-30T03:30:12.917Z,18
2023-01-30T03:31:12.990Z,20
2023-01-30T03:32:12.910Z,20
2023-01-30T03:33:12.907Z,18
2023-01-30T03:34:12.913Z,19
2023-01-30T03:35:12.917Z,19
2023-01-30T03:37:12.914Z,19
2023-01-30T03:38:12.922Z,17
2023-01-30T03:39:12.919Z,20
2023-01-30T03:40:12.920Z,19
2023-01-30T03:41:12.910Z,18
2023-01-30T03:42:12.904Z,18
2023-01-30T03:43:12.936Z,18
2023-01-30T03:44:12.961Z,18
2023-01-30T03:45:12.914Z,18
2023-01-30T03:47:12.919Z,20
2023-01-30T03:48:12.914Z,19
2023-01-30T03:49:12.914Z,18
2023-01-30T03:50:12.906Z,19
2023-01-30T03:51:12.905Z,20
2023-01-30T03:52:12.912Z,19
2023-01-30T03:53:12.909Z,17
2023-01-30T03:54:12.906Z,19
2023-01-30T03:55:12.910Z,16
2023-01-30T03:56:12.928Z,16
2023-01-30T03:57:12.922Z,15
2023-01-30T03:58:12.922Z,18
2023-01-30T03:59:12.913Z,17
2023-01-30T04:00:12.918Z,16
2023-01-30T04:01:12.942Z,18
2023-01-30T04:02:12.929Z,19
2023-01-30T04:03:12.908Z,18
2023-01-30T04:04:12.906Z,20
2023-01-30T04:05:12.920Z,18
2023-01-30T04:06:12.941Z,17
2023-01-30T04:07:12.904Z,18
2023-01-30T04:08:12.913Z,17
2023-01-30T04:09:12.907Z,18
2023-01-30T04:10:12.911Z,18
2023-01-30T04:11:12.903Z,16
2023-01-30T04:12:12.914Z,17
2023-01-30T04:13:12.907Z,19
2023-01-30T04:14:12.906Z,20
2023-01-30T04:15:12.934Z,19
2023-01-30T04:16:12.911Z,18
2023-01-30T04:17:12.936Z,20
2023-01-30T04:18:12.904Z,19
2023-01-30T04:19:12.913Z,18
2023-01-30T04:20:12.905Z,17
2023-01-30T04:21:12.904Z,19
2023-01-30T04:22:12.906Z,19
2023-01-30T04:23:12.903Z,18
2023-01-30T04:24:12.915Z,19
2023-01-30T04:25:12.899Z,18
2023-01-30T04:26:12.941Z,19
2023-01-30T04:27:12.922Z,14
2023-01-30T04:28:12.901Z,15
2023-01-30T04:29:12.912Z,17
2023-01-30T04:30:12.907Z,18
2023-01-30T04:31:12.934Z,17
2023-01-30T04:32:12.900Z,19
2023-01-30T04:33:12.902Z,17
2023-01-30T04:34:12.905Z,18
2023-01-30T04:35:12.916Z,19
2023-01-30T04:36:12.906Z,16
2023-01-30T04:37:12.911Z,16
2023-01-30T04:38:12.928Z,17
2023-01-30T04:39:12.919Z,17
2023-01-30T04:40:12.911Z,14
2023-01-30T04:41:12.929Z,17
2023-01-30T04:42:12.917Z,17
2023-01-30T04:43:12.909Z,16
2023-01-30T04:44:12.904Z,16
2023-01-30T04:45:12.913Z,17
2023-01-30T04:46:12.933Z,15
2023-01-30T04:47:13.045Z,16
2023-01-30T04:48:12.902Z,17
2023-01-30T04:49:12.911Z,17
2023-01-30T04:50:12.910Z,14
2023-01-30T04:51:12.911Z,16
2023-01-30T04:52:12.906Z,15
2023-01-30T04:53:12.912Z,16
2023-01-30T04:54:12.905Z,16
2023-01-30T04:55:12.914Z,15
2023-01-30T04:56:12.905Z,16
2023-01-30T04:57:12.911Z,16
2023-01-30T04:58:13.283Z,17
2023-01-30T04:59:12.907Z,16
2023-01-30T05:00:12.907Z,15
2023-01-30T05:01:12.897Z,18
2023-01-30T05:02:12.984Z,16
2023-01-30T05:03:12.898Z,16
2023-01-30T05:04:12.905Z,16
2023-01-30T05:05:12.913Z,15
2023-01-30T05:07:12.897Z,14
2023-01-30T05:08:12.912Z,18
2023-01-30T05:09:12.909Z,15
2023-01-30T05:10:12.910Z,15
2023-01-30T05:11:12.908Z,16
2023-01-30T05:12:12.896Z,16
2023-01-30T05:13:12.914Z,15
2023-01-30T05:15:12.926Z,16
2023-01-30T05:16:12.923Z,13
2023-01-30T05:17:12.981Z,15
2023-01-30T05:18:12.905Z,15
2023-01-30T05:20:12.910Z,18
2023-01-30T05:21:12.893Z,15
2023-01-30T05:22:12.899Z,16
2023-01-30T05:23:12.910Z,16
2023-01-30T05:24:12.903Z,15
2023-01-30T05:25:12.908Z,17
2023-01-30T05:26:12.916Z,15
2023-01-30T05:27:12.903Z,15
2023-01-30T05:28:12.907Z,16
2023-01-30T05:29:12.892Z,16
2023-01-30T05:30:12.905Z,15
2023-01-30T05:31:12.965Z,16
2023-01-30T05:32:12.912Z,15
2023-01-30T05:33:12.909Z,16
2023-01-30T05:34:12.902Z,17
2023-01-30T05:35:12.908Z,15
2023-01-30T05:36:12.900Z,16
2023-01-30T05:37:12.904Z,16
2023-01-30T05:38:12.903Z,18
2023-01-30T05:39:12.904Z,17
2023-01-30T05:41:12.891Z,15
2023-01-30T05:42:12.906Z,17
2023-01-30T05:43:12.898Z,16
2023-01-30T05:44:12.907Z,16
2023-01-30T05:45:12.892Z,17
2023-01-30T05:46:12.973Z,14
2023-01-30T05:47:12.897Z,17
2023-01-30T05:48:13.015Z,14
2023-01-30T05:49:12.896Z,15
2023-01-30T05:50:12.903Z,16
2023-01-30T05:51:12.897Z,17
2023-01-30T05:52:12.896Z,17
2023-01-30T05:53:12.909Z,17
2023-01-30T05:54:12.904Z,15
2023-01-30T05:55:12.906Z,16
2023-01-30T05:56:12.912Z,17
2023-01-30T05:57:12.908Z,18
2023-01-30T05:58:12.909Z,16
2023-01-30T05:59:12.910Z,18
2023-01-30T06:00:12.897Z,15
2023-01-30T06:02:12.896Z,18
2023-01-30T06:03:12.902Z,17
2023-01-30T06:04:12.969Z,17
2023-01-30T06:05:12.914Z,18
2023-01-30T06:06:12.904Z,18
2023-01-30T06:07:12.901Z,16
2023-01-30T06:08:12.892Z,16
2023-01-30T06:09:12.895Z,16
2023-01-30T06:10:12.906Z,16
2023-01-30T06:11:12.892Z,20
2023-01-30T06:12:12.894Z,19
2023-01-30T06:13:12.892Z,19
2023-01-30T06:14:12.919Z,19
2023-01-30T06:15:12.908Z,15
2023-01-30T06:16:12.919Z,18
2023-01-30T06:17:12.929Z,15
2023-01-30T06:18:12.920Z,19
2023-01-30T06:19:12.926Z,19
2023-01-30T06:20:12.893Z,16
2023-01-30T06:22:12.902Z,18
2023-01-30T06:23:12.909Z,18
2023-01-30T06:24:12.899Z,19
2023-01-30T06:25:12.899Z,17
2023-01-30T06:26:12.974Z,19
2023-01-30T06:27:12.897Z,17
2023-01-30T06:28:12.893Z,18
2023-01-30T06:29:12.895Z,17
2023-01-30T06:30:12.891Z,17
2023-01-30T06:31:12.949Z,17
2023-01-30T06:32:12.895Z,16
2023-01-30T06:33:12.895Z,17
2023-01-30T06:34:12.889Z,16
2023-01-30T06:35:12.893Z,14
2023-01-30T06:36:12.910Z,17
2023-01-30T06:37:12.899Z,17
2023-01-30T06:38:12.903Z,17
2023-01-30T06:39:12.902Z,17
2023-01-30T06:40:12.921Z,16
2023-01-30T06:41:12.903Z,17
2023-01-30T06:42:12.897Z,18
2023-01-30T06:43:12.897Z,16
2023-01-30T06:44:12.901Z,16
2023-01-30T06:45:12.950Z,16
2023-01-30T06:46:12.939Z,18
2023-01-30T06:47:12.896Z,17
2023-01-30T06:48:12.898Z,17
2023-01-30T06:49:12.891Z,17
2023-01-30T06:50:13.183Z,16
2023-01-30T06:51:12.959Z,17
2023-01-30T06:52:12.889Z,18
2023-01-30T06:53:12.898Z,17
2023-01-30T06:54:12.899Z,17
2023-01-30T06:55:12.893Z,16
2023-01-30T06:56:12.886Z,17
2023-01-30T06:57:12.900Z,16
2023-01-30T06:58:12.899Z,16
2023-01-30T06:59:13.073Z,17
2023-01-30T07:00:13.132Z,16
2023-01-30T07:01:12.897Z,16
2023-01-30T07:02:12.983Z,15
2023-01-30T07:03:12.893Z,16
2023-01-30T07:04:12.932Z,16
2023-01-30T07:05:12.894Z,16
2023-01-30T07:06:12.889Z,15
2023-01-30T07:07:12.894Z,16
2023-01-30T07:08:12.890Z,13
2023-01-30T07:09:12.889Z,13
2023-01-30T07:10:12.903Z,14
2023-01-30T07:11:12.889Z,14
2023-01-30T07:12:12.903Z,13
2023-01-30T07:13:12.892Z,14
2023-01-30T07:14:12.902Z,15
2023-01-30T07:15:12.901Z,13
2023-01-30T07:16:12.918Z,13
2023-01-30T07:17:12.898Z,13
2023-01-30T07:18:12.897Z,11
2023-01-30T07:19:12.890Z,14
2023-01-30T07:20:12.890Z,13
2023-01-30T07:21:13.051Z,13
2023-01-30T07:22:12.893Z,12
2023-01-30T07:23:12.911Z,12
2023-01-30T07:24:12.894Z,11
2023-01-30T07:25:12.932Z,12
2023-01-30T07:26:12.933Z,11
2023-01-30T07:27:12.918Z,11
2023-01-30T07:28:12.902Z,11
2023-01-30T07:29:12.897Z,9
2023-01-30T07:30:12.895Z,8
2023-01-30T07:31:12.892Z,8
2023-01-30T07:32:12.893Z,10
2023-01-30T07:33:12.904Z,8
2023-01-30T07:34:12.897Z,8
2023-01-30T07:35:12.892Z,8
2023-01-30T07:36:12.896Z,8
2023-01-30T07:37:12.889Z,7
2023-01-30T07:38:12.996Z,7
2023-01-30T07:40:12.903Z,7
2023-01-30T07:41:12.916Z,6
2023-01-30T07:42:12.904Z,6
2023-01-30T07:43:12.886Z,5
2023-01-30T07:44:12.891Z,5
2023-01-30T07:45:12.907Z,6
2023-01-30T07:46:12.891Z,5
2023-01-30T07:47:12.892Z,6
2023-01-30T07:48:12.888Z,6
2023-01-30T07:49:12.899Z,5
2023-01-30T07:50:12.898Z,5
2023-01-30T07:51:12.888Z,5
2023-01-30T07:53:12.893Z,5
2023-01-30T07:54:12.896Z,5
2023-01-30T07:55:12.894Z,4
2023-01-30T07:56:12.936Z,4
2023-01-30T07:57:12.895Z,4
2023-01-30T07:58:12.901Z,4
2023-01-30T07:59:12.895Z,4
2023-01-30T08:00:12.881Z,4
2023-01-30T08:01:13.210Z,4
2023-01-30T08:02:12.889Z,3
2023-01-30T08:03:12.891Z,4
2023-01-30T08:04:12.953Z,4
2023-01-30T08:06:12.888Z,4
2023-01-30T08:07:12.892Z,4
2023-01-30T08:08:12.897Z,3
2023-01-30T08:09:12.895Z,4
2023-01-30T08:10:12.892Z,3
2023-01-30T08:11:12.887Z,3
2023-01-30T08:12:12.888Z,3
2023-01-30T08:14:12.886Z,4
2023-01-30T08:15:12.894Z,3
2023-01-30T08:16:12.901Z,3
2023-01-30T08:17:12.891Z,3
2023-01-30T08:18:12.888Z,3
2023-01-30T08:19:12.891Z,3
2023-01-30T08:20:12.891Z,3
2023-01-30T08:21:12.882Z,4
2023-01-30T08:22:12.901Z,3
2023-01-30T08:23:12.914Z,3
2023-01-30T08:24:12.885Z,3
2023-01-30T08:25:12.891Z,4
2023-01-30T08:26:12.947Z,3
2023-01-30T08:27:12.888Z,3
2023-01-30T08:28:12.895Z,4
2023-01-30T08:29:12.899Z,3
2023-01-30T08:31:12.997Z,3
2023-01-30T08:32:14.723Z,3
2023-01-30T08:33:12.885Z,3
2023-01-30T08:34:12.888Z,3
2023-01-30T08:35:12.905Z,3
2023-01-30T08:36:12.890Z,3
2023-01-30T08:37:12.882Z,3
2023-01-30T08:38:12.887Z,3
2023-01-30T08:39:12.890Z,3
2023-01-30T08:40:12.886Z,4
2023-01-30T08:41:12.883Z,3
2023-01-30T08:42:12.884Z,2
2023-01-30T08:43:12.884Z,3
2023-01-30T08:44:12.891Z,3
2023-01-30T08:45:12.889Z,3
2023-01-30T08:46:12.918Z,3
2023-01-30T08:47:12.882Z,3
2023-01-30T08:48:12.888Z,2
2023-01-30T08:49:12.902Z,3
2023-01-30T08:50:12.894Z,3
2023-01-30T08:51:12.907Z,3
2023-01-30T08:52:12.882Z,3
2023-01-30T08:53:12.888Z,3
2023-01-30T08:54:12.914Z,3
2023-01-30T08:55:12.883Z,3
2023-01-30T08:56:12.891Z,3
2023-01-30T08:57:12.889Z,2
2023-01-30T08:59:12.889Z,4
2023-01-30T09:00:12.905Z,3
2023-01-30T09:01:12.903Z,3
2023-01-30T09:02:12.940Z,4
2023-01-30T09:03:12.889Z,3
2023-01-30T09:04:12.886Z,3
2023-01-30T09:05:12.893Z,3
2023-01-30T09:06:12.894Z,3
2023-01-30T09:07:12.898Z,3
2023-01-30T09:08:12.886Z,3
2023-01-30T09:09:12.887Z,3
2023-01-30T09:10:12.896Z,3
2023-01-30T09:11:12.886Z,3
2023-01-30T09:12:12.890Z,3
2023-01-30T09:13:12.890Z,3
2023-01-30T09:14:12.887Z,3
2023-01-30T09:15:12.894Z,3
2023-01-30T09:16:12.980Z,3
2023-01-30T09:17:12.881Z,3
2023-01-30T09:18:12.912Z,2
2023-01-30T09:19:12.896Z,3
2023-01-30T09:20:12.893Z,3
2023-01-30T09:21:12.875Z,3
2023-01-30T09:22:12.888Z,4
2023-01-30T09:23:12.887Z,3
2023-01-30T09:24:12.888Z,3
2023-01-30T09:25:12.919Z,3
2023-01-30T09:26:12.932Z,2
2023-01-30T09:27:12.884Z,3
2023-01-30T09:28:12.903Z,4
2023-01-30T09:29:12.898Z,3
2023-01-30T09:30:12.886Z,3
2023-01-30T09:31:13.011Z,3
2023-01-30T09:33:12.916Z,3
2023-01-30T09:34:12.896Z,3
2023-01-30T09:35:12.891Z,3
2023-01-30T09:36:12.895Z,3
2023-01-30T09:37:12.883Z,3
2023-01-30T09:38:12.915Z,3
2023-01-30T09:39:12.892Z,4
2023-01-30T09:40:12.889Z,3
2023-01-30T09:41:12.915Z,2
2023-01-30T09:42:12.882Z,3
2023-01-30T09:43:12.901Z,3
2023-01-30T09:44:12.883Z,3
2023-01-30T09:46:12.967Z,3
2023-01-30T09:47:12.906Z,2
2023-01-30T09:48:12.890Z,3
2023-01-30T09:49:12.951Z,3
2023-01-30T09:50:12.898Z,3
2023-01-30T09:51:12.889Z,3
2023-01-30T09:52:12.879Z,3
2023-01-30T09:53:12.883Z,3
2023-01-30T09:54:12.913Z,3
2023-01-30T09:55:12.890Z,3
2023-01-30T09:56:12.925Z,3
2023-01-30T09:57:21.622Z,2
2023-01-30T09:59:12.887Z,3
2023-01-30T10:00:12.885Z,3
2023-01-30T10:01:12.875Z,3
2023-01-30T10:02:12.883Z,3
2023-01-30T10:03:12.949Z,2
2023-01-30T10:04:12.899Z,3
2023-01-30T10:05:12.983Z,3
2023-01-30T10:06:12.896Z,3
2023-01-30T10:07:12.883Z,3
2023-01-30T10:08:12.891Z,3
2023-01-30T10:09:12.876Z,4
2023-01-30T10:10:12.891Z,2
2023-01-30T10:11:12.875Z,3
2023-01-30T10:12:12.907Z,3
2023-01-30T10:13:12.885Z,3
2023-01-30T10:14:12.888Z,3
2023-01-30T10:15:12.881Z,2
2023-01-30T10:16:12.933Z,3
2023-01-30T10:17:12.919Z,2
2023-01-30T10:18:12.919Z,2
2023-01-30T10:20:12.885Z,3
2023-01-30T10:21:12.883Z,3
2023-01-30T10:22:12.893Z,3
2023-01-30T10:23:12.877Z,4
2023-01-30T10:24:12.906Z,3
2023-01-30T10:25:12.968Z,3
2023-01-30T10:26:12.950Z,3
2023-01-30T10:27:12.909Z,3
2023-01-30T10:28:12.895Z,3
2023-01-30T10:29:12.889Z,3
2023-01-30T10:30:12.897Z,3
2023-01-30T10:31:13.047Z,3
2023-01-30T10:32:12.886Z,2
2023-01-30T10:33:12.912Z,2
2023-01-30T10:34:12.888Z,3
2023-01-30T10:35:12.913Z,2
2023-01-30T10:36:12.882Z,3
2023-01-30T10:37:12.880Z,3
2023-01-30T10:38:12.885Z,3
2023-01-30T10:39:12.872Z,2
2023-01-30T10:40:12.878Z,4
2023-01-30T10:41:12.888Z,3
2023-01-30T10:42:12.886Z,3
2023-01-30T10:43:12.919Z,3
2023-01-30T10:44:12.881Z,3
2023-01-30T10:45:12.901Z,3
2023-01-30T10:46:12.972Z,3
2023-01-30T10:47:12.887Z,3
2023-01-30T10:48:12.881Z,3
2023-01-30T10:49:12.889Z,3
2023-01-30T10:50:12.877Z,3
2023-01-30T10:51:12.876Z,4
2023-01-30T10:52:12.879Z,3
2023-01-30T10:53:12.881Z,2
2023-01-30T10:54:12.873Z,2
2023-01-30T10:55:12.891Z,3
2023-01-30T10:56:12.879Z,3
2023-01-30T10:57:12.902Z,3
2023-01-30T10:58:12.871Z,3
2023-01-30T10:59:12.895Z,4
2023-01-30T11:00:13.841Z,3
2023-01-30T11:01:12.892Z,2
2023-01-30T11:02:12.881Z,3
2023-01-30T11:03:12.977Z,3
2023-01-30T11:04:12.880Z,3
2023-01-30T11:05:12.880Z,3
2023-01-30T11:06:12.880Z,2
2023-01-30T11:07:12.890Z,3
2023-01-30T11:08:12.870Z,3
2023-01-30T11:09:12.873Z,3
2023-01-30T11:10:12.886Z,3
2023-01-30T11:11:12.895Z,2
2023-01-30T11:12:12.916Z,3
2023-01-30T11:13:12.874Z,4
2023-01-30T11:14:12.915Z,3
2023-01-30T11:15:12.883Z,2
2023-01-30T11:16:12.902Z,3
2023-01-30T12:28:12.885Z,3
2023-01-30T12:29:12.873Z,2
2023-01-30T12:30:12.876Z,2
2023-01-30T12:31:12.878Z,3
2023-01-30T12:32:12.884Z,3
2023-01-30T12:33:12.987Z,3
2023-01-30T12:34:12.897Z,3
2023-01-30T12:35:12.882Z,3
2023-01-30T12:36:12.874Z,3
2023-01-30T12:37:12.874Z,3
2023-01-30T12:38:12.870Z,2
2023-01-30T12:39:12.871Z,3
2023-01-30T12:40:12.874Z,3
2023-01-30T12:41:12.887Z,2
2023-01-30T12:43:12.885Z,3
2023-01-30T12:44:12.874Z,2
2023-01-30T12:45:12.871Z,4
2023-01-30T12:46:12.924Z,2
2023-01-30T12:47:12.901Z,2
2023-01-30T12:48:12.875Z,3
2023-01-30T12:49:12.902Z,3
2023-01-30T12:50:12.916Z,3
2023-01-30T12:51:12.912Z,3
2023-01-30T12:52:12.871Z,2
2023-01-30T12:53:12.876Z,3
2023-01-30T12:54:12.866Z,3
2023-01-30T12:56:12.878Z,3
2023-01-30T12:57:12.875Z,3
2023-01-30T12:58:12.888Z,2
2023-01-30T12:59:12.873Z,2
2023-01-30T13:00:13.078Z,3
2023-01-30T13:01:12.936Z,3
2023-01-30T13:02:12.905Z,3
2023-01-30T13:03:12.960Z,2
2023-01-30T13:04:12.870Z,3
2023-01-30T13:05:12.869Z,3
2023-01-30T13:06:12.876Z,3
2023-01-30T13:07:12.869Z,3
2023-01-30T13:08:12.873Z,3
2023-01-30T13:09:12.875Z,3
2023-01-30T13:10:14.133Z,3
2023-01-30T13:11:12.908Z,3
2023-01-30T13:12:12.872Z,3
2023-01-30T13:13:12.868Z,3
2023-01-30T13:14:12.869Z,2
2023-01-30T13:15:12.878Z,3
2023-01-30T13:17:12.870Z,3
2023-01-30T13:18:12.901Z,3
2023-01-30T13:19:12.871Z,4
2023-01-30T13:20:12.963Z,3
2023-01-30T13:22:12.880Z,2
2023-01-30T13:23:12.867Z,3
2023-01-30T13:25:12.863Z,3
2023-01-30T13:26:12.959Z,3
2023-01-30T13:27:12.863Z,3
2023-01-30T13:28:12.874Z,3
2023-01-30T13:30:12.964Z,3
2023-01-30T13:31:13.020Z,3
2023-01-30T13:32:13.048Z,3
2023-01-30T13:33:12.867Z,4
2023-01-30T13:34:12.865Z,3
2023-01-30T13:35:12.869Z,3
2023-01-30T13:36:12.880Z,2
2023-01-30T13:37:12.910Z,3
2023-01-30T13:38:12.872Z,3
2023-01-30T13:39:12.870Z,3
2023-01-30T13:40:12.878Z,2
2023-01-30T13:41:12.876Z,3
2023-01-30T13:42:12.865Z,3
2023-01-30T13:43:12.872Z,3
2023-01-30T13:44:12.865Z,3
2023-01-30T13:45:12.875Z,2
2023-01-30T13:46:12.935Z,3
2023-01-30T13:47:12.870Z,3
2023-01-30T13:48:12.871Z,3
2023-01-30T13:49:12.894Z,3
2023-01-30T13:51:12.879Z,3
2023-01-30T13:52:14.444Z,3
2023-01-30T13:53:12.888Z,3
2023-01-30T13:54:12.870Z,4
2023-01-30T13:55:12.944Z,3
2023-01-30T13:56:32.884Z,3
2023-01-30T13:57:12.873Z,3
2023-01-30T13:58:12.868Z,3
2023-01-30T13:59:12.870Z,3
2023-01-30T14:00:12.878Z,3
2023-01-30T14:01:12.995Z,3
2023-01-30T14:02:12.930Z,3
2023-01-30T14:03:12.874Z,3
2023-01-30T14:04:12.875Z,4
2023-01-30T14:05:12.874Z,2
2023-01-30T14:06:12.868Z,3
2023-01-30T14:07:12.861Z,2
2023-01-30T14:08:12.873Z,3
2023-01-30T14:09:12.872Z,2
2023-01-30T14:10:12.885Z,3
2023-01-30T14:23:12.892Z,3
2023-01-30T14:24:12.863Z,3
2023-01-30T14:25:14.556Z,3
2023-01-30T14:26:12.927Z,3
2023-01-30T14:30:12.875Z,3
2023-01-30T14:31:12.996Z,2
2023-01-30T14:32:13.172Z,4
2023-01-30T14:34:12.903Z,3
2023-01-30T14:35:12.878Z,3
2023-01-30T14:36:12.900Z,3
2023-01-30T14:37:12.879Z,3
2023-01-30T14:38:12.904Z,2
2023-01-30T14:39:12.874Z,3
2023-01-30T14:40:12.865Z,3
2023-01-30T14:41:12.872Z,3
2023-01-30T14:42:12.875Z,3
2023-01-30T14:43:12.955Z,4
2023-01-30T14:44:12.876Z,3
2023-01-30T14:45:12.870Z,3
2023-01-30T14:46:14.298Z,4
2023-01-30T14:47:33.383Z,3
2023-01-30T14:48:12.932Z,4
2023-01-30T14:49:12.868Z,3
2023-01-30T14:50:12.861Z,3
2023-01-30T14:51:12.876Z,2
2023-01-30T14:52:12.865Z,3
2023-01-30T14:53:12.875Z,3
2023-01-30T14:54:13.461Z,3
2023-01-30T14:56:12.861Z,2
2023-01-30T14:57:12.881Z,3
2023-01-30T14:58:13.005Z,4
2023-01-30T14:59:12.868Z,4
2023-01-30T15:00:17.374Z,3
2023-01-30T15:01:12.936Z,3
2023-01-30T15:02:12.971Z,3
2023-01-30T15:03:12.858Z,3
2023-01-30T15:04:12.870Z,2
2023-01-30T15:05:12.860Z,3
2023-01-30T15:06:12.872Z,3
2023-01-30T15:07:12.864Z,3
2023-01-30T15:08:12.895Z,3
2023-01-30T15:09:12.866Z,3
2023-01-30T15:10:12.871Z,3
2023-01-30T15:11:12.874Z,3
2023-01-30T15:12:12.869Z,3
2023-01-30T15:13:12.875Z,2
2023-01-30T15:14:12.864Z,3
2023-01-30T15:15:12.866Z,3
2023-01-30T15:16:12.887Z,4
2023-01-30T15:18:12.873Z,3
2023-01-30T15:19:12.871Z,3
2023-01-30T15:20:12.895Z,3
2023-01-30T15:21:12.877Z,3
2023-01-30T15:22:12.883Z,3
2023-01-30T15:23:12.876Z,3
2023-01-30T15:24:12.854Z,3
2023-01-30T15:25:12.882Z,3
2023-01-30T15:26:12.899Z,3
2023-01-30T15:27:12.870Z,3
2023-01-30T15:28:12.871Z,3
2023-01-30T15:29:12.874Z,2
2023-01-30T15:30:12.867Z,3
2023-01-30T15:31:12.959Z,2
2023-01-30T15:32:12.886Z,3
2023-01-30T15:33:13.992Z,3
2023-01-30T15:34:12.866Z,3
2023-01-30T15:35:12.875Z,3
2023-01-30T15:36:12.870Z,3
2023-01-30T15:37:12.860Z,3
2023-01-30T15:38:12.865Z,4
2023-01-30T15:39:12.860Z,3
2023-01-30T15:40:12.865Z,2
2023-01-30T15:41:12.890Z,3
2023-01-30T15:42:12.863Z,3
2023-01-30T15:43:12.866Z,3
2023-01-30T15:44:12.867Z,3
2023-01-30T15:45:12.866Z,3
2023-01-30T15:46:12.966Z,3
2023-01-30T15:47:12.865Z,3
2023-01-30T15:48:12.859Z,3
2023-01-30T15:49:12.866Z,4
2023-01-30T15:50:12.882Z,3
2023-01-30T15:51:14.072Z,3
2023-01-30T15:52:12.862Z,3
2023-01-30T15:53:12.867Z,3
2023-01-30T15:54:12.863Z,3
2023-01-30T15:55:12.861Z,2
2023-01-30T15:56:12.923Z,3
2023-01-30T15:58:12.869Z,3
2023-01-30T15:59:12.866Z,3
2023-01-30T16:00:12.866Z,2
2023-01-30T16:01:12.954Z,3
2023-01-30T16:02:12.938Z,4
2023-01-30T16:03:12.867Z,3
2023-01-30T16:04:12.865Z,3
2023-01-30T16:05:12.866Z,2
2023-01-30T16:06:12.867Z,2
2023-01-30T16:07:12.869Z,3
2023-01-30T16:08:12.866Z,4
2023-01-30T16:09:12.862Z,3
2023-01-30T16:10:12.931Z,3
2023-01-30T16:11:12.860Z,2
2023-01-30T16:12:12.869Z,3
2023-01-30T16:13:12.891Z,3
2023-01-30T16:14:12.865Z,3
2023-01-30T16:16:13.041Z,3
2023-01-30T16:18:12.869Z,3
2023-01-30T16:19:12.866Z,2
2023-01-30T16:21:12.885Z,3
2023-01-30T16:22:12.861Z,3
2023-01-30T16:23:12.865Z,3
2023-01-30T16:24:12.873Z,3
2023-01-30T16:25:12.891Z,2
2023-01-30T16:27:12.884Z,3
2023-01-30T16:28:12.866Z,3
2023-01-30T16:29:12.860Z,3
2023-01-30T16:30:12.864Z,3
2023-01-30T16:32:12.864Z,3
2023-01-30T16:33:12.866Z,3
2023-01-30T16:34:12.863Z,3
2023-01-30T16:35:12.861Z,3
2023-01-30T16:36:12.860Z,3
2023-01-30T16:37:12.862Z,3
2023-01-30T16:38:12.862Z,3
2023-01-30T16:39:12.864Z,2
2023-01-30T16:40:12.874Z,3
2023-01-30T16:41:12.865Z,3
2023-01-30T16:42:12.859Z,3
2023-01-30T16:43:12.859Z,3